createdAt,value
2019-02-21T00:38:38.344Z,21.93
2019-02-21T00:41:09.756Z,24.17
2019-02-21T00:43:41.057Z,24.27
2019-02-21T00:46:11.902Z,24.70
2019-02-21T00:48:42.548Z,22.47
2019-02-21T00:51:13.021Z,22.00
2019-02-21T00:53:44.139Z,24.07
2019-02-21T00:56:15.398Z,22.27
2019-02-21T01:06:21.969Z,24.37
2019-02-21T01:08:52.308Z,23.93
2019-02-21T01:11:23.126Z,23.10
2019-02-21T01:13:53.984Z,25.27
2019-02-21T01:16:24.415Z,22.17
2019-02-21T01:18:54.786Z,26.00
2019-02-21T01:21:25.298Z,22.87
2019-02-21T01:24:01.535Z,26.77
2019-02-21T01:26:31.883Z,23.50
2019-02-21T01:29:02.312Z,29.40
2019-02-21T01:31:32.595Z,22.63
2019-02-21T01:34:02.915Z,22.30
2019-02-21T01:36:33.290Z,21.50
2019-02-21T01:39:05.396Z,24.67
2019-02-21T01:41:35.757Z,20.83
2019-02-21T01:44:06.231Z,28.17
2019-02-21T01:46:36.697Z,22.10
2019-02-21T01:49:07.062Z,25.63
2019-02-21T01:51:37.787Z,22.37
2019-02-21T01:54:08.225Z,23.43
2019-02-21T01:56:38.652Z,22.83
2019-02-21T01:59:09.567Z,26.30
2019-02-21T02:01:39.875Z,25.27
2019-02-21T02:04:10.417Z,26.23
2019-02-21T02:06:41.101Z,25.10
2019-02-21T02:09:13.541Z,22.13
2019-02-21T02:11:44.002Z,26.23
2019-02-21T02:14:14.415Z,25.47
2019-02-21T02:16:45.106Z,25.87
2019-02-21T02:19:15.519Z,24.90
2019-02-21T02:21:45.975Z,24.17
2019-02-21T02:24:16.443Z,25.40
2019-02-21T02:26:47.005Z,23.03
2019-02-21T02:29:17.320Z,28.93
2019-02-21T02:31:49.047Z,27.03
2019-02-21T02:34:19.471Z,26.50
2019-02-21T02:36:49.801Z,27.60
2019-02-21T02:39:20.150Z,24.10
2019-02-21T02:41:50.445Z,25.00
2019-02-21T02:44:23.629Z,25.33
2019-02-21T02:46:54.203Z,25.40
2019-02-21T02:49:27.130Z,22.73
2019-02-21T02:51:57.450Z,22.73
2019-02-21T02:54:31.377Z,24.83
2019-02-21T02:57:04.294Z,25.67
2019-02-21T02:59:40.773Z,30.10
2019-02-21T03:02:09.390Z,23.73
2019-02-21T03:04:40.661Z,25.37
2019-02-21T03:07:13.994Z,26.97
2019-02-21T03:09:44.552Z,26.83
2019-02-21T03:12:14.886Z,22.40
2019-02-21T03:14:45.643Z,28.93
2019-02-21T03:17:19.100Z,26.00
2019-02-21T03:19:51.696Z,27.53
2019-02-21T03:22:22.045Z,28.47
2019-02-21T03:24:52.426Z,27.37
2019-02-21T03:27:23.217Z,30.30
2019-02-21T03:29:55.195Z,27.23
2019-02-21T03:32:25.466Z,26.80
2019-02-21T03:34:55.898Z,29.13
2019-02-21T03:37:35.735Z,25.67
2019-02-21T03:40:07.832Z,31.77
2019-02-21T03:42:41.428Z,26.10
2019-02-21T03:45:12.363Z,31.33
2019-02-21T03:47:43.111Z,28.27
2019-02-21T03:50:13.457Z,27.00
2019-02-21T03:52:46.880Z,27.23
2019-02-21T03:55:18.598Z,27.83
2019-02-21T03:57:49.052Z,29.40
2019-02-21T04:00:21.865Z,26.93
2019-02-21T04:02:53.150Z,28.37
2019-02-21T04:05:28.229Z,26.87
2019-02-21T04:08:08.324Z,27.17
2019-02-21T04:10:48.677Z,23.80
2019-02-21T04:13:19.120Z,25.60
2019-02-21T04:15:52.121Z,26.47
2019-02-21T04:18:22.579Z,28.57
2019-02-21T04:20:52.917Z,28.77
2019-02-21T04:23:23.640Z,25.00
2019-02-21T04:25:54.017Z,28.77
2019-02-21T04:28:24.336Z,23.60
2019-02-21T04:30:54.663Z,26.77
2019-02-21T04:33:25.010Z,26.63
2019-02-21T04:35:55.697Z,23.87
2019-02-21T04:38:26.385Z,29.20
2019-02-21T04:40:56.882Z,27.57
2019-02-21T04:43:27.580Z,26.07
2019-02-21T04:45:59.102Z,28.03
2019-02-21T04:48:29.555Z,26.40
2019-02-21T04:51:00.163Z,22.80
2019-02-21T04:53:30.517Z,27.40
2019-02-21T04:56:00.942Z,27.50
2019-02-21T04:58:31.338Z,24.37
2019-02-21T05:01:01.715Z,28.60
2019-02-21T05:03:32.464Z,31.80
2019-02-21T05:06:05.394Z,25.40
2019-02-21T05:08:35.934Z,27.60
2019-02-21T05:11:09.512Z,27.73
2019-02-21T05:13:40.309Z,25.80
2019-02-21T05:16:12.943Z,28.73
2019-02-21T05:18:43.915Z,27.53
2019-02-21T05:21:14.314Z,26.33
2019-02-21T05:23:44.619Z,30.20
2019-02-21T05:26:19.119Z,26.47
2019-02-21T05:28:54.352Z,20.87
2019-02-21T05:31:51.960Z,22.17
2019-02-21T05:34:35.360Z,25.80
2019-02-21T05:37:42.814Z,27.83
2019-02-21T05:40:46.529Z,26.97
2019-02-21T05:43:42.315Z,25.90
2019-02-21T05:46:37.326Z,26.97
2019-02-21T05:49:31.758Z,29.40
2019-02-21T05:52:13.102Z,22.70
2019-02-21T05:55:03.513Z,28.20
2019-02-21T05:57:50.898Z,22.03
2019-02-21T06:00:32.670Z,34.30
2019-02-21T06:03:36.015Z,24.70
2019-02-21T06:06:31.343Z,28.87
2019-02-21T06:09:16.415Z,25.73
2019-02-21T06:12:05.746Z,24.93
2019-02-21T06:15:04.279Z,32.40
2019-02-21T06:17:52.258Z,27.80
2019-02-21T06:20:33.684Z,24.30
2019-02-21T06:23:16.736Z,28.50
2019-02-21T06:25:56.718Z,26.40
2019-02-21T06:28:30.692Z,31.67
2019-02-21T06:31:07.267Z,28.20
2019-02-21T06:33:37.685Z,27.23
2019-02-21T06:36:08.003Z,29.47
2019-02-21T06:38:38.366Z,29.57
2019-02-21T06:41:08.879Z,31.43
2019-02-21T06:43:41.394Z,28.17
2019-02-21T06:46:13.705Z,30.60
2019-02-21T06:48:44.235Z,29.87
2019-02-21T06:51:15.051Z,29.20
2019-02-21T06:53:46.100Z,29.40
2019-02-21T06:56:16.458Z,29.73
2019-02-21T06:58:46.852Z,33.83
2019-02-21T07:01:28.163Z,30.70
2019-02-21T07:03:51.571Z,28.90
2019-02-21T07:06:31.420Z,29.73
2019-02-21T07:08:54.279Z,36.00
2019-02-21T07:11:25.434Z,31.47
2019-02-21T07:13:55.986Z,33.70
2019-02-21T07:16:26.787Z,32.37
2019-02-21T07:18:57.142Z,29.20
2019-02-21T07:21:30.279Z,33.73
2019-02-21T07:24:00.638Z,31.53
2019-02-21T07:26:31.341Z,31.27
2019-02-21T07:29:01.706Z,34.10
2019-02-21T07:31:32.848Z,32.90
2019-02-21T07:34:03.963Z,31.30
2019-02-21T07:36:34.337Z,41.30
2019-02-21T07:39:17.055Z,31.07
2019-02-21T07:41:38.118Z,32.30
2019-02-21T07:44:12.145Z,36.63
2019-02-21T07:46:40.770Z,36.87
2019-02-21T07:49:11.521Z,31.87
2019-02-21T07:51:41.914Z,36.53
2019-02-21T07:54:12.344Z,37.47
2019-02-21T07:56:45.309Z,34.20
2019-02-21T07:59:15.784Z,35.07
2019-02-21T08:01:47.357Z,36.50
2019-02-21T08:04:18.112Z,38.47
2019-02-21T08:06:48.484Z,34.93
2019-02-21T08:09:19.262Z,35.47
2019-02-21T08:11:49.620Z,31.63
2019-02-21T08:14:20.424Z,34.53
2019-02-21T08:16:51.355Z,34.83
2019-02-21T08:19:22.162Z,31.37
2019-02-21T08:21:52.750Z,51.70
2019-02-21T08:24:23.667Z,44.27
2019-02-21T08:26:56.231Z,31.10
2019-02-21T08:29:26.866Z,31.53
2019-02-21T08:31:57.869Z,31.47
2019-02-21T08:34:35.885Z,36.13
2019-02-21T08:37:08.736Z,35.83
2019-02-21T08:39:38.698Z,37.33
2019-02-21T08:42:10.199Z,37.47
2019-02-21T08:44:40.986Z,32.40
2019-02-21T08:47:12.530Z,50.50
2019-02-21T08:49:51.402Z,36.90
2019-02-21T08:52:25.613Z,33.57
2019-02-21T08:55:00.169Z,35.60
2019-02-21T08:57:29.304Z,30.43
2019-02-21T08:59:59.875Z,49.17
2019-02-21T09:02:51.640Z,32.73
2019-02-21T09:05:45.036Z,35.27
2019-02-21T09:08:35.002Z,33.87
2019-02-21T09:11:10.267Z,37.77
2019-02-21T09:13:41.780Z,36.20
2019-02-21T09:16:12.703Z,43.37
2019-02-21T09:18:44.794Z,30.80
2019-02-21T09:21:18.256Z,36.33
2019-02-21T09:23:56.612Z,36.10
2019-02-21T09:26:30.567Z,37.77
2019-02-21T09:29:01.368Z,35.47
2019-02-21T09:31:39.147Z,34.83
2019-02-21T09:34:20.624Z,30.30
2019-02-21T09:36:44.706Z,35.37
2019-02-21T09:39:17.253Z,33.70
2019-02-21T09:41:47.843Z,33.10
2019-02-21T09:44:18.644Z,34.13
2019-02-21T09:46:49.310Z,35.40
2019-02-21T09:49:19.983Z,29.90
2019-02-21T09:51:57.702Z,36.07
2019-02-21T09:54:29.786Z,32.13
2019-02-21T09:57:12.513Z,32.83
2019-02-21T09:59:34.065Z,30.57
2019-02-21T10:02:14.576Z,35.67
2019-02-21T10:04:40.767Z,37.00
2019-02-21T10:07:18.205Z,28.57
2019-02-21T10:09:50.539Z,36.93
2019-02-21T10:12:22.202Z,37.97
2019-02-21T10:14:53.269Z,35.00
2019-02-21T10:17:23.974Z,33.93
2019-02-21T10:19:55.001Z,35.67
2019-02-21T10:22:26.614Z,31.87
2019-02-21T10:24:57.130Z,35.10
2019-02-21T10:27:30.503Z,34.60
2019-02-21T10:30:01.683Z,29.07
2019-02-21T10:32:38.689Z,39.23
2019-02-21T10:35:09.882Z,34.63
2019-02-21T10:37:40.289Z,32.07
2019-02-21T10:40:12.703Z,31.77
2019-02-21T10:43:06.951Z,32.83
2019-02-21T10:45:34.669Z,33.20
2019-02-21T10:48:07.382Z,35.87
2019-02-21T10:50:47.587Z,36.13
2019-02-21T10:53:23.430Z,28.27
2019-02-21T10:56:05.077Z,32.10
2019-02-21T10:58:37.906Z,30.53
2019-02-21T11:01:09.914Z,30.17
2019-02-21T11:03:46.951Z,29.03
2019-02-21T11:06:20.462Z,37.43
2019-02-21T11:08:51.399Z,33.17
2019-02-21T11:11:34.701Z,31.27
2019-02-21T11:14:05.123Z,32.33
2019-02-21T11:16:35.725Z,31.10
2019-02-21T11:19:06.134Z,30.27
2019-02-21T11:21:38.316Z,31.70
2019-02-21T11:24:15.259Z,27.17
2019-02-21T11:26:55.670Z,29.67
2019-02-21T11:29:26.644Z,34.93
2019-02-21T11:31:57.535Z,34.53
2019-02-21T11:34:28.062Z,31.57
2019-02-21T11:36:59.971Z,29.17
2019-02-21T11:39:30.453Z,31.43
2019-02-21T11:42:01.375Z,31.90
2019-02-21T11:44:32.007Z,28.87
2019-02-21T11:47:02.569Z,31.10
2019-02-21T11:49:37.097Z,30.60
2019-02-21T11:52:10.352Z,28.50
2019-02-21T11:54:40.895Z,31.10
2019-02-21T11:57:12.658Z,29.40
2019-02-21T11:59:44.126Z,25.53
2019-02-21T12:02:17.596Z,26.17
2019-02-21T12:04:47.936Z,27.07
2019-02-21T12:07:18.594Z,25.20
2019-02-21T12:09:49.075Z,30.40
2019-02-21T12:12:27.444Z,29.67
2019-02-21T12:14:58.591Z,30.97
2019-02-21T12:17:28.907Z,30.70
2019-02-21T12:19:59.294Z,29.67
2019-02-21T12:22:29.744Z,27.47
2019-02-21T12:25:02.011Z,28.60
2019-02-21T12:27:33.495Z,30.07
2019-02-21T12:30:04.222Z,27.57
2019-02-21T12:32:35.128Z,22.40
2019-02-21T12:35:07.042Z,27.50
2019-02-21T12:37:37.598Z,22.57
2019-02-21T12:40:10.448Z,27.57
2019-02-21T12:42:40.942Z,26.97
2019-02-21T12:45:14.715Z,26.90
2019-02-21T12:47:50.934Z,27.53
2019-02-21T12:50:17.885Z,23.57
2019-02-21T12:53:00.620Z,24.33
2019-02-21T12:55:43.814Z,23.30
2019-02-21T12:58:25.486Z,26.87
2019-02-21T13:01:11.713Z,23.87
2019-02-21T13:03:42.101Z,25.87
2019-02-21T13:06:12.833Z,23.90
2019-02-21T13:08:43.803Z,21.93
2019-02-21T13:11:25.729Z,23.53
2019-02-21T13:13:56.073Z,23.60
2019-02-21T13:16:26.533Z,21.70
2019-02-21T13:18:57.127Z,23.17
2019-02-21T13:21:32.723Z,28.17
2019-02-21T13:24:03.077Z,23.87
2019-02-21T13:26:34.892Z,22.47
2019-02-21T13:29:05.347Z,27.83
2019-02-21T13:31:36.240Z,24.00
2019-02-21T13:34:06.649Z,24.07
2019-02-21T13:36:37.596Z,20.77
2019-02-21T13:39:10.205Z,21.30
2019-02-21T13:41:40.726Z,20.80
2019-02-21T13:44:12.188Z,19.30
2019-02-21T13:46:43.250Z,20.70
2019-02-21T13:49:13.880Z,19.50
2019-02-21T13:51:44.458Z,20.20
2019-02-21T13:54:14.857Z,21.03
2019-02-21T13:56:45.401Z,24.23
2019-02-21T13:59:16.083Z,18.70
2019-02-21T14:01:46.810Z,20.77
2019-02-21T14:04:17.197Z,18.60
2019-02-21T14:06:48.867Z,17.43
2019-02-21T14:09:24.257Z,16.43
2019-02-21T14:11:54.290Z,15.10
2019-02-21T14:14:24.919Z,15.37
2019-02-21T14:16:55.271Z,16.23
2019-02-21T14:19:25.995Z,17.83
2019-02-21T14:22:01.275Z,18.23
2019-02-21T14:24:37.322Z,16.07
2019-02-21T14:27:08.825Z,18.57
2019-02-21T14:29:41.937Z,13.90
2019-02-21T14:32:12.371Z,19.10
2019-02-21T14:34:43.421Z,18.77
2019-02-21T14:37:19.050Z,20.00
2019-02-21T14:39:52.846Z,18.77
2019-02-21T14:42:49.094Z,18.00
2019-02-21T14:45:19.861Z,16.83
2019-02-21T14:47:50.381Z,17.87
2019-02-21T14:50:23.337Z,20.20
2019-02-21T14:52:56.430Z,17.03
2019-02-21T14:55:37.764Z,18.63
2019-02-21T14:58:11.309Z,17.57
2019-02-21T15:00:55.076Z,16.07
2019-02-21T15:03:32.909Z,17.57
2019-02-21T15:06:05.982Z,21.67
2019-02-21T15:08:36.964Z,16.63
2019-02-21T15:11:07.505Z,17.90
2019-02-21T15:13:38.262Z,18.63
2019-02-21T15:16:09.556Z,19.10
2019-02-21T15:18:55.843Z,17.80
2019-02-21T15:21:26.655Z,16.80
2019-02-21T15:23:58.157Z,18.70
2019-02-21T15:26:29.276Z,15.53
2019-02-21T15:29:00.545Z,14.97
2019-02-21T15:31:31.330Z,15.80
2019-02-21T15:34:04.827Z,15.90
2019-02-21T15:36:41.368Z,13.17
2019-02-21T15:39:12.233Z,12.63
2019-02-21T15:41:53.878Z,11.40
2019-02-21T15:44:27.774Z,15.13
2019-02-21T15:46:59.147Z,9.47
2019-02-21T15:49:39.772Z,13.20
2019-02-21T15:52:21.918Z,11.37
2019-02-21T15:54:48.808Z,10.07
2019-02-21T15:57:20.656Z,14.77
2019-02-21T16:00:02.058Z,14.47
2019-02-21T16:02:32.526Z,14.50
2019-02-21T16:05:05.334Z,13.53
2019-02-21T16:07:35.843Z,19.03
2019-02-21T16:10:08.439Z,15.60
2019-02-21T16:12:39.014Z,13.40
2019-02-21T16:15:16.204Z,15.03
2019-02-21T16:17:49.863Z,18.70
2019-02-21T16:20:21.291Z,19.50
2019-02-21T16:22:51.958Z,18.10
2019-02-21T16:25:22.726Z,19.63
2019-02-21T16:27:55.302Z,19.07
2019-02-21T16:30:25.877Z,20.83
2019-02-21T16:32:56.763Z,21.40
2019-02-21T16:35:28.295Z,18.20
2019-02-21T16:38:03.180Z,19.07
2019-02-21T16:40:35.859Z,21.03
2019-02-21T16:43:06.661Z,18.77
2019-02-21T16:45:43.419Z,19.17
2019-02-21T16:48:10.644Z,22.53
2019-02-21T16:50:51.544Z,22.80
2019-02-21T16:53:27.897Z,20.20
2019-02-21T16:56:03.741Z,19.50
2019-02-21T16:59:10.965Z,19.77
2019-02-21T17:01:42.402Z,18.57
2019-02-21T17:04:12.908Z,18.53
2019-02-21T17:06:43.277Z,19.67
2019-02-21T17:09:13.985Z,21.50
2019-02-21T17:11:44.517Z,23.27
2019-02-21T17:14:15.374Z,21.33
2019-02-21T17:16:48.087Z,22.73
2019-02-21T17:19:19.063Z,21.97
2019-02-21T17:21:52.111Z,23.50
2019-02-21T17:24:24.212Z,28.23
2019-02-21T17:26:57.786Z,25.77
2019-02-21T17:29:32.259Z,25.00
2019-02-21T17:32:03.382Z,25.27
2019-02-21T17:34:36.810Z,22.60
2019-02-21T17:37:32.947Z,22.97
2019-02-21T17:40:03.721Z,28.33
2019-02-21T17:42:34.122Z,24.70
2019-02-21T17:45:04.639Z,21.73
2019-02-21T17:47:35.002Z,25.67
2019-02-21T17:50:05.593Z,23.13
2019-02-21T17:52:36.067Z,24.23
2019-02-21T17:55:07.135Z,22.77
2019-02-21T17:57:37.877Z,23.57
2019-02-21T18:00:12.793Z,22.30
2019-02-21T18:02:43.620Z,21.60
2019-02-21T18:05:14.214Z,24.77
2019-02-21T18:07:54.928Z,21.37
2019-02-21T18:10:40.090Z,24.53
2019-02-21T18:13:10.608Z,25.10
2019-02-21T18:15:41.036Z,23.03
2019-02-21T18:18:11.414Z,24.57
2019-02-21T18:20:45.542Z,23.47
2019-02-21T18:23:16.040Z,22.90
2019-02-21T18:26:08.319Z,23.77
2019-02-21T18:28:38.697Z,23.30
2019-02-21T18:31:09.002Z,24.57
2019-02-21T18:33:39.917Z,22.27
2019-02-21T18:36:10.348Z,23.50
2019-02-21T18:38:40.731Z,25.20
2019-02-21T18:41:25.876Z,22.63
2019-02-21T18:44:02.153Z,28.90
2019-02-21T18:46:32.574Z,23.43
2019-02-21T18:49:03.445Z,23.97
2019-02-21T18:51:34.039Z,24.07
2019-02-21T18:54:12.439Z,23.87
2019-02-21T18:56:48.443Z,23.13
2019-02-21T18:59:38.358Z,24.83
2019-02-21T19:02:49.611Z,21.70
2019-02-21T19:05:23.586Z,22.27
2019-02-21T19:08:05.388Z,24.70
2019-02-21T19:10:38.458Z,26.77
2019-02-21T19:13:10.362Z,24.10
2019-02-21T19:15:46.245Z,25.37
2019-02-21T19:18:15.888Z,25.03
2019-02-21T19:20:54.161Z,25.90
2019-02-21T19:23:41.121Z,23.57
2019-02-21T19:26:07.599Z,24.47
2019-02-21T19:28:38.192Z,25.93
2019-02-21T19:31:13.863Z,26.40
2019-02-21T19:33:44.798Z,26.87
2019-02-21T19:36:19.471Z,26.83
2019-02-21T19:38:53.994Z,28.90
2019-02-21T19:41:46.697Z,24.40
2019-02-21T19:44:20.590Z,26.27
2019-02-21T19:46:54.249Z,25.13
2019-02-21T19:49:25.310Z,26.53
2019-02-21T19:51:56.250Z,27.57
2019-02-21T19:54:28.779Z,30.47
2019-02-21T19:57:06.710Z,28.33
2019-02-21T19:59:53.472Z,31.50
2019-02-21T20:02:31.142Z,30.00
2019-02-21T20:05:02.268Z,27.23
2019-02-21T20:07:40.289Z,29.03
2019-02-21T20:10:15.313Z,29.67
2019-02-21T20:13:02.766Z,30.83
2019-02-21T20:15:53.639Z,32.27
2019-02-21T20:18:28.053Z,33.80
2019-02-21T20:20:58.737Z,30.23
2019-02-21T20:23:36.818Z,30.17
2019-02-21T20:26:17.701Z,33.57
2019-02-21T20:28:42.056Z,33.67
2019-02-21T20:31:16.853Z,27.23
2019-02-21T20:33:52.758Z,29.80
2019-02-21T20:36:23.742Z,30.50
2019-02-21T20:38:54.424Z,31.17
2019-02-21T20:41:29.062Z,32.63
2019-02-21T20:44:09.081Z,32.20
2019-02-21T20:46:48.058Z,31.23
2019-02-21T20:50:03.320Z,33.70
2019-02-21T20:52:57.219Z,29.60
2019-02-21T20:55:28.907Z,35.93
2019-02-21T20:58:12.938Z,34.77
2019-02-21T21:01:08.981Z,31.77
2019-02-21T21:04:13.601Z,36.20
2019-02-21T21:07:02.373Z,34.77
2019-02-21T21:09:33.849Z,35.30
2019-02-21T21:12:33.511Z,36.37
2019-02-21T21:15:28.389Z,39.63
2019-02-21T21:18:00.393Z,37.90
2019-02-21T21:20:51.489Z,42.87
2019-02-21T21:23:58.356Z,39.67
2019-02-21T21:26:34.711Z,39.43
2019-02-21T21:29:19.995Z,43.10
2019-02-21T21:31:50.688Z,59.90
2019-02-21T21:34:26.135Z,42.93
2019-02-21T21:36:58.596Z,41.70
2019-02-21T21:39:29.381Z,44.30
2019-02-21T21:42:00.011Z,44.00
2019-02-21T21:44:55.565Z,45.67
2019-02-21T21:47:30.902Z,40.27
2019-02-21T21:50:28.609Z,48.63
2019-02-21T21:53:00.762Z,50.83
2019-02-21T21:55:41.967Z,46.23
2019-02-21T21:58:27.347Z,48.43
2019-02-21T22:01:13.249Z,48.03
2019-02-21T22:04:08.911Z,50.67
2019-02-21T22:06:40.888Z,47.90
2019-02-21T22:09:11.607Z,57.23
2019-02-21T22:11:44.809Z,50.43
2019-02-21T22:14:15.537Z,50.00
2019-02-21T22:16:46.109Z,44.93
2019-02-21T22:19:18.756Z,49.97
2019-02-21T22:21:49.266Z,59.27
2019-02-21T22:24:19.769Z,47.33
2019-02-21T22:26:55.929Z,48.10
2019-02-21T22:29:26.558Z,52.23
2019-02-21T22:32:00.669Z,49.10
2019-02-21T22:34:31.119Z,49.83
2019-02-21T22:37:03.849Z,53.73
2019-02-21T22:39:34.273Z,48.30
2019-02-21T22:42:04.930Z,51.40
2019-02-21T22:44:38.083Z,49.87
2019-02-21T22:47:10.915Z,50.20
2019-02-21T22:49:41.425Z,47.80
2019-02-21T22:52:17.063Z,45.57
2019-02-21T22:54:46.946Z,50.37
2019-02-21T22:57:28.124Z,53.63
2019-02-21T23:00:07.827Z,50.03
2019-02-21T23:02:41.119Z,48.93
2019-02-21T23:05:54.562Z,47.33
2019-02-21T23:08:55.092Z,54.27
2019-02-21T23:11:29.459Z,52.57
2019-02-21T23:13:59.854Z,50.40
2019-02-21T23:16:30.516Z,52.20
2019-02-21T23:19:01.252Z,52.93
2019-02-21T23:21:37.758Z,46.93
2019-02-21T23:24:08.287Z,50.63
2019-02-21T23:26:42.045Z,54.47
2019-02-21T23:29:13.841Z,55.37
2019-02-21T23:31:44.601Z,50.03
2019-02-21T23:34:21.461Z,51.37
2019-02-21T23:36:52.204Z,84.00
2019-02-21T23:39:22.570Z,49.47
2019-02-21T23:41:54.567Z,50.43
2019-02-21T23:44:25.060Z,50.50
2019-02-21T23:46:55.833Z,47.23
2019-02-21T23:49:26.712Z,47.47
2019-02-21T23:51:57.153Z,81.63
2019-02-21T23:54:27.997Z,46.00
2019-02-21T23:56:58.799Z,44.90
2019-02-21T23:59:29.179Z,44.60
